createdAt,value
2023-02-08T00:01:59.452Z,82.45
2023-02-08T00:06:51.125Z,84.29
2023-02-08T00:11:42.896Z,86.50
2023-02-08T00:16:34.941Z,88.11
2023-02-08T00:21:26.614Z,85.46
2023-02-08T00:26:19.889Z,83.60
2023-02-08T00:31:11.652Z,86.01
2023-02-08T00:36:08.046Z,84.71
2023-02-08T00:40:59.805Z,83.81
2023-02-08T00:46:00.955Z,85.71
2023-02-08T00:51:05.120Z,85.31
2023-02-08T00:55:57.146Z,86.47
2023-02-08T01:00:53.124Z,86.14
2023-02-08T01:05:44.846Z,85.60
2023-02-08T01:10:36.533Z,86.05
2023-02-08T01:15:28.232Z,85.98
2023-02-08T01:20:20.204Z,86.01
2023-02-08T01:25:11.896Z,86.19
2023-02-08T01:30:05.178Z,85.29
2023-02-08T01:34:56.844Z,84.89
2023-02-08T01:39:48.531Z,85.02
2023-02-08T01:45:21.053Z,84.25
2023-02-08T01:50:17.806Z,83.89
2023-02-08T01:55:20.374Z,83.95
2023-02-08T02:00:22.213Z,83.15
2023-02-08T02:05:16.215Z,83.10
2023-02-08T02:10:14.274Z,83.45
2023-02-08T02:15:08.060Z,83.43
2023-02-08T02:20:23.753Z,83.30
2023-02-08T02:25:42.538Z,82.82
2023-02-08T02:30:53.119Z,82.93
2023-02-08T02:36:03.003Z,83.15
2023-02-08T02:41:05.818Z,83.95
2023-02-08T02:46:25.265Z,84.52
2023-02-08T02:51:44.192Z,84.82
2023-02-08T02:56:43.036Z,84.38
2023-02-08T03:01:36.100Z,83.67
2023-02-08T03:06:59.913Z,84.49
2023-02-08T03:12:22.487Z,84.26
2023-02-08T03:17:59.986Z,83.61
2023-02-08T03:23:24.294Z,83.71
2023-02-08T03:28:39.575Z,83.32
2023-02-08T03:34:02.636Z,84.13
2023-02-08T03:38:56.068Z,84.13
2023-02-08T03:44:05.485Z,84.21
2023-02-08T03:49:08.415Z,84.02
2023-02-08T03:54:06.517Z,83.84
2023-02-08T03:59:09.193Z,85.08
2023-02-08T04:04:01.560Z,84.24
2023-02-08T04:08:53.492Z,84.06
2023-02-08T04:13:45.287Z,84.77
2023-02-08T04:18:36.953Z,84.37
2023-02-08T04:23:28.610Z,84.93
2023-02-08T04:28:20.321Z,84.16
2023-02-08T04:33:14.698Z,84.82
2023-02-08T04:38:06.381Z,84.76
2023-02-08T04:42:58.052Z,84.55
2023-02-08T04:47:49.715Z,84.66
2023-02-08T04:52:41.380Z,83.58
2023-02-08T04:57:33.052Z,83.16
2023-02-08T05:02:26.576Z,85.22
2023-02-08T05:07:19.116Z,85.79
2023-02-08T05:12:10.849Z,87.08
2023-02-08T05:17:02.720Z,87.57
2023-02-08T05:21:54.735Z,88.14
2023-02-08T05:26:47.220Z,88.04
2023-02-08T05:31:39.478Z,87.78
2023-02-08T05:36:32.595Z,87.39
2023-02-08T05:41:24.958Z,85.99
2023-02-08T05:46:17.015Z,85.30
2023-02-08T05:51:09.628Z,85.60
2023-02-08T05:56:01.567Z,86.10
2023-02-08T06:00:54.568Z,83.86
2023-02-08T06:05:47.094Z,83.51
2023-02-08T06:15:45.944Z,84.33
2023-02-08T06:20:43.011Z,84.19
2023-02-08T06:25:37.224Z,84.02
2023-02-08T06:35:39.073Z,83.42
2023-02-08T06:40:33.209Z,82.48
2023-02-08T06:45:25.060Z,83.07
2023-02-08T06:50:17.370Z,82.52
2023-02-08T07:00:16.866Z,83.56
2023-02-08T07:05:11.081Z,81.95
2023-02-08T07:10:05.218Z,82.56
2023-02-08T07:14:58.089Z,82.37
2023-02-08T07:24:57.734Z,81.99
2023-02-08T07:34:56.086Z,82.21
2023-02-08T07:39:50.141Z,82.96
2023-02-08T07:44:43.277Z,84.08
2023-02-08T07:49:35.384Z,82.72
2023-02-08T07:54:27.876Z,80.46
2023-02-08T07:59:19.897Z,79.86
2023-02-08T08:04:13.033Z,79.75
2023-02-08T08:09:06.078Z,79.31
2023-02-08T08:24:10.958Z,79.53
2023-02-08T08:29:03.118Z,78.84
2023-02-08T08:33:56.621Z,78.49
2023-02-08T08:38:49.091Z,78.93
2023-02-08T08:43:43.500Z,79.31
2023-02-08T09:14:41.699Z,76.27
2023-02-08T09:24:40.177Z,74.29
2023-02-08T09:39:52.044Z,72.37
2023-02-08T09:56:14.785Z,71.40
2023-02-08T10:17:58.154Z,69.08
2023-02-08T11:17:36.497Z,68.05
2023-02-08T11:48:59.593Z,66.05
2023-02-08T12:55:56.300Z,62.02
2023-02-08T13:00:56.199Z,62.47
2023-02-08T13:06:02.200Z,62.02
2023-02-08T13:11:21.178Z,60.94
2023-02-08T13:16:39.373Z,60.71
2023-02-08T13:32:09.743Z,60.18
2023-02-08T13:37:25.188Z,59.37
2023-02-08T13:42:36.417Z,59.19
2023-02-08T13:47:44.091Z,59.37
2023-02-08T13:52:49.536Z,58.26
2023-02-08T14:24:50.471Z,57.26
2023-02-08T14:29:44.687Z,57.23
2023-02-08T14:50:41.188Z,56.90
2023-02-08T14:55:49.497Z,56.18
2023-02-08T15:06:17.567Z,56.26
2023-02-08T16:08:44.527Z,67.67
2023-02-08T16:34:48.541Z,71.36
2023-02-08T16:45:09.328Z,73.43
2023-02-08T16:50:03.147Z,73.68
2023-02-08T17:00:04.301Z,75.32
2023-02-08T17:15:09.296Z,75.02
2023-02-08T17:20:02.733Z,74.91
2023-02-08T17:30:01.330Z,73.95
2023-02-08T17:34:53.720Z,73.25
2023-02-08T17:39:46.582Z,72.82
2023-02-08T17:49:45.901Z,73.50
2023-02-08T17:54:38.706Z,75.44
2023-02-08T18:04:37.381Z,80.74
2023-02-08T18:09:32.893Z,81.90
2023-02-08T18:14:24.790Z,83.61
2023-02-08T18:19:17.284Z,85.20
2023-02-08T18:24:10.728Z,85.62
2023-02-08T18:29:03.875Z,85.74
2023-02-08T18:33:57.656Z,85.64
2023-02-08T18:44:00.145Z,86.06
2023-02-08T18:48:54.397Z,86.36
2023-02-08T18:53:51.678Z,86.46
2023-02-08T18:58:45.030Z,86.85
2023-02-08T19:03:40.395Z,86.94
2023-02-08T19:08:33.096Z,87.63
2023-02-08T19:13:30.384Z,85.17
2023-02-08T19:18:22.773Z,84.39
2023-02-08T19:23:18.510Z,83.51
2023-02-08T19:28:10.701Z,83.30
2023-02-08T19:33:03.391Z,82.32
2023-02-08T19:37:55.210Z,82.56
2023-02-08T19:42:48.205Z,83.04
2023-02-08T19:47:50.995Z,82.76
2023-02-08T19:52:43.526Z,83.49
2023-02-08T19:57:40.277Z,83.05
2023-02-08T20:02:32.934Z,82.84
2023-02-08T20:07:26.519Z,82.82
2023-02-08T20:12:19.729Z,82.79
2023-02-08T20:17:11.870Z,83.01
2023-02-08T20:22:11.809Z,83.33
2023-02-08T20:27:03.975Z,83.94
2023-02-08T20:31:57.789Z,84.18
2023-02-08T20:37:05.695Z,85.30
2023-02-08T20:42:02.696Z,85.49
2023-02-08T20:46:54.613Z,84.76
2023-02-08T20:51:46.858Z,85.54
2023-02-08T20:56:40.362Z,85.39
2023-02-08T21:01:35.111Z,86.54
2023-02-08T21:06:31.713Z,86.82
2023-02-08T21:11:28.715Z,86.94
2023-02-08T21:16:22.414Z,88.50
2023-02-08T21:21:15.569Z,88.57
2023-02-08T21:26:08.861Z,89.43
2023-02-08T21:31:12.843Z,91.26
2023-02-08T21:36:10.368Z,92.95
2023-02-08T21:41:16.682Z,92.99
2023-02-08T21:46:13.408Z,93.97
2023-02-08T21:51:24.045Z,94.23
2023-02-08T21:56:15.878Z,95.30
2023-02-08T22:01:09.039Z,95.49
2023-02-08T22:06:01.649Z,96.55
2023-02-08T22:10:58.308Z,97.03
2023-02-08T22:15:50.835Z,97.89
2023-02-08T22:20:47.334Z,97.80
2023-02-08T22:25:39.318Z,97.39
2023-02-08T22:30:32.322Z,97.38
2023-02-08T22:35:28.056Z,98.18
2023-02-08T22:40:20.342Z,98.73
2023-02-08T22:45:12.577Z,98.38
2023-02-08T22:50:06.342Z,98.03
2023-02-08T22:55:02.995Z,98.31
2023-02-08T22:59:55.391Z,98.19
2023-02-08T23:04:47.503Z,97.86
2023-02-08T23:09:39.457Z,97.50
2023-02-08T23:14:31.374Z,97.81
2023-02-08T23:19:41.065Z,97.51
2023-02-08T23:24:33.207Z,97.62
2023-02-08T23:29:26.077Z,98.11
2023-02-08T23:34:18.479Z,98.16
2023-02-08T23:39:13.700Z,97.71
2023-02-08T23:44:06.447Z,97.53
2023-02-08T23:48:58.688Z,97.21
2023-02-08T23:53:52.653Z,97.03
2023-02-08T23:58:51.702Z,97.32
